Washita, Oklahoma
Current Conditions -  °F | °C
As of 5:58 PM on Monday 20 Oct 2014 (Local Time) from KFSI Reporting Station
Clear Clear  
Wind Chill: 81°   Ceiling: Unl
Heat Index: 82°   Visibility: 10mi
Dew Point: 59°   Wind: 3mph
Humidity: 46%   Direction: 180°S
Pressure: 29.98"   Gusts: NA
Location:  35.1°N, 98.34°W
Report Text: KFSI 202258Z AUTO 18003KT 10SM CLR 27/15 A2998 RMK AO2 SLP147 T02740150
Loading
Personal Weather Stations






























Interactive Weather Map New forecast layout! Learn more

10-Day Weather Forecast

Advertisements
Track Severe Weather on mobile